Aérodrome :
LOGIN :

S'inscrire | Disclaimer

   EN    FR    IT 

 










Légende :    VFR   VFR Marginal   IFR   IFR Intensif   IFR Très Intensif
Visi : 
Plafond : 
>= 8 km
>= 3000ft
5 à 8 km
1000 à 3000 ft
1500m à 5 km
500 à 1000 ft
800 à 1500m
200 à 500 ft
< 800m
< 200 ft
Symboles :   Orages  Brouillard  Fortes neiges  Fortes précipitations  Vent > 20 kt
SIGMETs :   Divers  Orages  Givrage  Turbulence  Onde Orograph.  Cendres Volcan.






- Altitude de l'aérodrome : 3 ft
- Code IATA : DHR


EHKD - Den Helder De Kooy

DERNIER METAR :
  • 010225Z AUTO 21002KT 9999 OVC027 02/01 Q1025 BLU

METARs EXPIRÉS :
  • 010155Z AUTO 20003KT 9999 OVC026 02/00 Q1026 BLU
  • 010143Z AUTO 23003KT 190V280 9999 OVC025 01/00 Q1026 BLU
  • 010125Z AUTO VRB02KT 9999 OVC024 01/M00 Q1026 WHT
  • 010055Z AUTO VRB02KT 9999 OVC025 00/M00 Q1026 BLU
  • 010025Z AUTO 21002KT 9999 BKN027 M00/M01 Q1027 BLU
  • 312355Z AUTO 22002KT 9999 NCD M01/M01 Q1027 BLU

TAF TAF EHKD
Valide du 01 à 01h jusqu'au 01 à 13h UTC


010007Z 0101/0113 24004KT CAVOK
BECMG 0102/0104 SCT022 SCT027
TEMPO 0105/0108 SCT017 SCT025
BECMG 0106/0109 28010KT



MET'MAP, la Météo Aéronautique d'un coup d'oeil ! - Copyright ORBIFLY Décembre 2007 - Disclaimer

ORBIFLY MET'MAP TEAM :

Programmation & Développement : Alexandra Zaïnal
Sur une idée originale de : Baudouin d'Aumeries
Assistance à la programmation : Marc-Olivier Méhu
Soutien technique & logistique : Manuel Goepfert

Contact : metmap@orbifly.com




SOURCES & CREDITS :

   NOAA